sensor_id;sensor_type;location;lat;lon;timestamp;pressure;altitude;pressure_sealevel;temperature;humidity
20009;BME280;10165;42.662;23.260;2022-11-02T00:00:41;94792.53;;;16.17;46.08
20009;BME280;10165;42.662;23.260;2022-11-02T00:03:12;94787.69;;;16.03;46.32
20009;BME280;10165;42.662;23.260;2022-11-02T00:05:38;94791.16;;;16.04;46.28
20009;BME280;10165;42.662;23.260;2022-11-02T00:08:05;94785.78;;;16.04;46.28
20009;BME280;10165;42.662;23.260;2022-11-02T00:10:32;94792.97;;;15.96;46.24
20009;BME280;10165;42.662;23.260;2022-11-02T00:13:06;94775.63;;;15.94;46.38
20009;BME280;10165;42.662;23.260;2022-11-02T00:15:37;94786.34;;;15.90;46.57
20009;BME280;10165;42.662;23.260;2022-11-02T00:18:11;94786.41;;;15.94;46.69
20009;BME280;10165;42.662;23.260;2022-11-02T00:20:42;94781.78;;;15.94;46.72
20009;BME280;10165;42.662;23.260;2022-11-02T00:23:15;94780.13;;;15.86;47.04
20009;BME280;10165;42.662;23.260;2022-11-02T00:25:49;94782.16;;;15.93;47.15
20009;BME280;10165;42.662;23.260;2022-11-02T00:28:18;94778.63;;;15.89;47.07
20009;BME280;10165;42.662;23.260;2022-11-02T00:30:54;94787.38;;;15.82;47.31
20009;BME280;10165;42.662;23.260;2022-11-02T00:33:34;94780.41;;;15.81;47.26
20009;BME280;10165;42.662;23.260;2022-11-02T00:36:10;94774.69;;;15.83;47.35
20009;BME280;10165;42.662;23.260;2022-11-02T00:38:49;94776.22;;;15.84;47.25
20009;BME280;10165;42.662;23.260;2022-11-02T00:41:24;94778.84;;;15.80;47.38
20009;BME280;10165;42.662;23.260;2022-11-02T00:43:53;94776.47;;;15.75;47.58
20009;BME280;10165;42.662;23.260;2022-11-02T00:46:34;94782.94;;;15.70;47.76
20009;BME280;10165;42.662;23.260;2022-11-02T00:49:13;94778.81;;;15.76;47.65
20009;BME280;10165;42.662;23.260;2022-11-02T00:51:42;94769.47;;;15.70;47.63
20009;BME280;10165;42.662;23.260;2022-11-02T00:54:12;94770.59;;;15.69;47.71
20009;BME280;10165;42.662;23.260;2022-11-02T00:56:42;94774.13;;;15.73;47.67
20009;BME280;10165;42.662;23.260;2022-11-02T00:59:10;94771.84;;;15.75;47.55
20009;BME280;10165;42.662;23.260;2022-11-02T01:01:46;94770.00;;;15.79;47.33
20009;BME280;10165;42.662;23.260;2022-11-02T01:04:18;94771.84;;;15.75;47.41
20009;BME280;10165;42.662;23.260;2022-11-02T01:06:45;94778.06;;;15.79;47.53
20009;BME280;10165;42.662;23.260;2022-11-02T01:09:26;94778.97;;;15.64;47.40
20009;BME280;10165;42.662;23.260;2022-11-02T01:11:59;94780.09;;;15.60;47.91
20009;BME280;10165;42.662;23.260;2022-11-02T01:14:33;94784.03;;;15.66;47.79
20009;BME280;10165;42.662;23.260;2022-11-02T01:17:09;94783.06;;;15.55;47.92
20009;BME280;10165;42.662;23.260;2022-11-02T01:19:43;94785.59;;;15.48;48.34
20009;BME280;10165;42.662;23.260;2022-11-02T01:22:21;94787.81;;;15.42;48.58
20009;BME280;10165;42.662;23.260;2022-11-02T01:24:48;94787.00;;;15.19;48.89
20009;BME280;10165;42.662;23.260;2022-11-02T01:27:14;94787.75;;;15.39;48.62
20009;BME280;10165;42.662;23.260;2022-11-02T01:29:46;94783.53;;;15.41;48.65
20009;BME280;10165;42.662;23.260;2022-11-02T01:32:22;94773.69;;;15.49;48.62
20009;BME280;10165;42.662;23.260;2022-11-02T01:34:51;94774.41;;;15.46;48.71
20009;BME280;10165;42.662;23.260;2022-11-02T01:37:19;94777.88;;;15.46;48.75
20009;BME280;10165;42.662;23.260;2022-11-02T01:39:45;94764.84;;;15.48;48.64
20009;BME280;10165;42.662;23.260;2022-11-02T01:42:25;94749.56;;;15.52;48.57
20009;BME280;10165;42.662;23.260;2022-11-02T01:44:55;94754.44;;;15.47;48.74
20009;BME280;10165;42.662;23.260;2022-11-02T01:47:32;94755.09;;;15.40;48.67
20009;BME280;10165;42.662;23.260;2022-11-02T01:50:09;94753.81;;;15.34;48.63
20009;BME280;10165;42.662;23.260;2022-11-02T01:52:52;94751.50;;;15.32;48.91
20009;BME280;10165;42.662;23.260;2022-11-02T01:55:31;94750.00;;;15.35;48.89
20009;BME280;10165;42.662;23.260;2022-11-02T01:58:12;94749.03;;;15.24;49.21
20009;BME280;10165;42.662;23.260;2022-11-02T02:00:45;94754.47;;;15.27;49.35
20009;BME280;10165;42.662;23.260;2022-11-02T02:03:14;94745.78;;;15.38;49.10
20009;BME280;10165;42.662;23.260;2022-11-02T02:05:48;94739.28;;;15.39;49.14
20009;BME280;10165;42.662;23.260;2022-11-02T02:08:23;94745.91;;;15.22;49.45
20009;BME280;10165;42.662;23.260;2022-11-02T02:10:58;94759.78;;;15.24;49.52
20009;BME280;10165;42.662;23.260;2022-11-02T02:13:26;94749.59;;;15.33;49.21
20009;BME280;10165;42.662;23.260;2022-11-02T02:16:14;94741.81;;;15.28;49.29
20009;BME280;10165;42.662;23.260;2022-11-02T02:19:00;94738.38;;;15.31;49.54
20009;BME280;10165;42.662;23.260;2022-11-02T02:27:40;94739.78;;;15.21;49.89
20009;BME280;10165;42.662;23.260;2022-11-02T02:30:19;94738.03;;;15.32;49.75
20009;BME280;10165;42.662;23.260;2022-11-02T02:33:09;94737.31;;;15.36;49.69
20009;BME280;10165;42.662;23.260;2022-11-02T02:39:09;94741.34;;;15.03;50.47
20009;BME280;10165;42.662;23.260;2022-11-02T02:41:46;94738.38;;;15.08;50.16
20009;BME280;10165;42.662;23.260;2022-11-02T02:44:21;94745.03;;;14.76;51.47
20009;BME280;10165;42.662;23.260;2022-11-02T02:46:58;94741.00;;;14.86;51.02
20009;BME280;10165;42.662;23.260;2022-11-02T02:49:35;94745.75;;;14.92;50.81
20009;BME280;10165;42.662;23.260;2022-11-02T02:52:04;94740.41;;;15.15;50.40
20009;BME280;10165;42.662;23.260;2022-11-02T02:54:40;94740.47;;;15.18;50.26
20009;BME280;10165;42.662;23.260;2022-11-02T02:57:20;94741.44;;;15.29;49.82
20009;BME280;10165;42.662;23.260;2022-11-02T02:59:59;94742.97;;;15.08;50.51
20009;BME280;10165;42.662;23.260;2022-11-02T03:02:38;94729.44;;;15.04;50.30
20009;BME280;10165;42.662;23.260;2022-11-02T03:05:28;94734.56;;;14.90;50.33
20009;BME280;10165;42.662;23.260;2022-11-02T03:08:20;94739.09;;;15.05;50.29
20009;BME280;10165;42.662;23.260;2022-11-02T03:11:16;94739.38;;;15.00;50.49
20009;BME280;10165;42.662;23.260;2022-11-02T03:14:05;94748.50;;;14.96;50.60
20009;BME280;10165;42.662;23.260;2022-11-02T03:19:49;94766.06;;;14.70;50.65
20009;BME280;10165;42.662;23.260;2022-11-02T03:34:27;94749.28;;;14.39;52.56
20009;BME280;10165;42.662;23.260;2022-11-02T03:37:23;94741.94;;;14.55;51.96
20009;BME280;10165;42.662;23.260;2022-11-02T03:39:56;94745.75;;;14.73;51.32
20009;BME280;10165;42.662;23.260;2022-11-02T03:42:31;94739.97;;;14.71;51.29
20009;BME280;10165;42.662;23.260;2022-11-02T03:45:23;94737.03;;;14.60;50.97
20009;BME280;10165;42.662;23.260;2022-11-02T03:47:58;94737.03;;;14.60;51.47
20009;BME280;10165;42.662;23.260;2022-11-02T03:50:45;94742.22;;;14.50;51.68
20009;BME280;10165;42.662;23.260;2022-11-02T03:54:04;94737.34;;;14.36;51.86
20009;BME280;10165;42.662;23.260;2022-11-02T03:56:41;94737.53;;;14.47;51.78
20009;BME280;10165;42.662;23.260;2022-11-02T03:59:16;94737.63;;;14.50;51.92
20009;BME280;10165;42.662;23.260;2022-11-02T04:01:45;94742.41;;;14.60;51.39
20009;BME280;10165;42.662;23.260;2022-11-02T04:04:18;94742.16;;;14.65;51.56
20009;BME280;10165;42.662;23.260;2022-11-02T04:06:51;94731.53;;;14.72;51.34
20009;BME280;10165;42.662;23.260;2022-11-02T04:09:26;94738.69;;;14.65;51.55
20009;BME280;10165;42.662;23.260;2022-11-02T04:11:53;94734.72;;;14.59;51.96
20009;BME280;10165;42.662;23.260;2022-11-02T04:14:38;94743.38;;;14.33;52.27
20009;BME280;10165;42.662;23.260;2022-11-02T04:17:08;94746.91;;;14.18;52.94
20009;BME280;10165;42.662;23.260;2022-11-02T04:20:06;94739.91;;;14.48;52.23
20009;BME280;10165;42.662;23.260;2022-11-02T04:22:34;94747.25;;;14.51;51.94
20009;BME280;10165;42.662;23.260;2022-11-02T04:25:34;94748.88;;;14.56;51.73
20009;BME280;10165;42.662;23.260;2022-11-02T04:28:10;94757.47;;;14.11;52.55
20009;BME280;10165;42.662;23.260;2022-11-02T04:30:43;94753.81;;;14.19;52.49
20009;BME280;10165;42.662;23.260;2022-11-02T04:33:13;94752.09;;;14.11;52.85
20009;BME280;10165;42.662;23.260;2022-11-02T04:36:04;94754.44;;;14.12;52.48
20009;BME280;10165;42.662;23.260;2022-11-02T04:38:35;94742.59;;;14.32;52.20
20009;BME280;10165;42.662;23.260;2022-11-02T04:41:15;94746.97;;;14.21;52.30
20009;BME280;10165;42.662;23.260;2022-11-02T04:44:04;94741.44;;;14.33;52.25
20009;BME280;10165;42.662;23.260;2022-11-02T04:46:44;94741.16;;;14.35;52.38
20009;BME280;10165;42.662;23.260;2022-11-02T04:49:16;94735.84;;;14.39;52.39
20009;BME280;10165;42.662;23.260;2022-11-02T04:51:46;94741.03;;;14.31;52.41
20009;BME280;10165;42.662;23.260;2022-11-02T04:54:15;94742.22;;;14.50;52.06
20009;BME280;10165;42.662;23.260;2022-11-02T04:56:48;94738.81;;;14.53;52.03
20009;BME280;10165;42.662;23.260;2022-11-02T04:59:26;94737.81;;;14.42;52.27
20009;BME280;10165;42.662;23.260;2022-11-02T05:01:52;94736.63;;;14.58;51.83
20009;BME280;10165;42.662;23.260;2022-11-02T05:04:21;94746.34;;;14.28;52.30
20009;BME280;10165;42.662;23.260;2022-11-02T05:06:59;94751.81;;;14.16;52.75
20009;BME280;10165;42.662;23.260;2022-11-02T05:09:27;94753.16;;;14.06;53.08
20009;BME280;10165;42.662;23.260;2022-11-02T05:12:03;94759.47;;;14.14;52.72
20009;BME280;10165;42.662;23.260;2022-11-02T05:14:37;94754.09;;;14.14;52.94
20009;BME280;10165;42.662;23.260;2022-11-02T05:17:03;94761.63;;;14.08;53.12
20009;BME280;10165;42.662;23.260;2022-11-02T05:19:32;94755.53;;;14.27;52.46
20009;BME280;10165;42.662;23.260;2022-11-02T05:22:06;94759.50;;;14.33;52.53
20009;BME280;10165;42.662;23.260;2022-11-02T05:24:34;94768.03;;;14.19;52.80
20009;BME280;10165;42.662;23.260;2022-11-02T05:27:01;94764.88;;;13.82;53.95
20009;BME280;10165;42.662;23.260;2022-11-02T05:29:44;94775.50;;;14.10;53.38
20009;BME280;10165;42.662;23.260;2022-11-02T05:32:24;94777.91;;;14.15;53.28
20009;BME280;10165;42.662;23.260;2022-11-02T05:34:56;94781.69;;;13.95;53.60
20009;BME280;10165;42.662;23.260;2022-11-02T05:37:29;94783.31;;;14.00;53.51
20009;BME280;10165;42.662;23.260;2022-11-02T05:40:06;94789.22;;;14.05;53.71
20009;BME280;10165;42.662;23.260;2022-11-02T05:42:39;94785.63;;;14.17;53.30
20009;BME280;10165;42.662;23.260;2022-11-02T05:45:08;94786.19;;;14.26;53.25
20009;BME280;10165;42.662;23.260;2022-11-02T05:47:35;94786.66;;;14.28;53.25
20009;BME280;10165;42.662;23.260;2022-11-02T05:50:02;94787.63;;;14.35;53.26
20009;BME280;10165;42.662;23.260;2022-11-02T05:52:29;94797.72;;;14.26;53.48
20009;BME280;10165;42.662;23.260;2022-11-02T05:54:56;94800.44;;;14.11;53.98
20009;BME280;10165;42.662;23.260;2022-11-02T05:57:22;94799.81;;;14.33;53.36
20009;BME280;10165;42.662;23.260;2022-11-02T05:59:59;94796.94;;;14.42;53.15
20009;BME280;10165;42.662;23.260;2022-11-02T06:02:27;94798.88;;;14.41;53.13
20009;BME280;10165;42.662;23.260;2022-11-02T06:04:54;94809.78;;;14.48;53.05
20009;BME280;10165;42.662;23.260;2022-11-02T06:07:20;94807.25;;;14.55;52.92
20009;BME280;10165;42.662;23.260;2022-11-02T06:09:57;94809.06;;;14.51;53.01
20009;BME280;10165;42.662;23.260;2022-11-02T06:12:24;94801.50;;;14.57;53.09
20009;BME280;10165;42.662;23.260;2022-11-02T06:14:52;94801.19;;;14.43;53.81
20009;BME280;10165;42.662;23.260;2022-11-02T06:17:19;94807.66;;;14.57;53.39
20009;BME280;10165;42.662;23.260;2022-11-02T06:19:49;94800.03;;;14.59;53.19
20009;BME280;10165;42.662;23.260;2022-11-02T06:22:18;94809.44;;;14.69;53.07
20009;BME280;10165;42.662;23.260;2022-11-02T06:24:50;94810.69;;;14.37;54.84
20009;BME280;10165;42.662;23.260;2022-11-02T06:27:16;94809.78;;;14.48;54.48
20009;BME280;10165;42.662;23.260;2022-11-02T06:29:49;94815.88;;;14.64;54.15
20009;BME280;10165;42.662;23.260;2022-11-02T06:32:22;94812.47;;;14.48;54.46
20009;BME280;10165;42.662;23.260;2022-11-02T06:35:00;94813.63;;;14.66;54.10
20009;BME280;10165;42.662;23.260;2022-11-02T06:37:27;94821.06;;;14.73;54.01
20009;BME280;10165;42.662;23.260;2022-11-02T06:40:06;94812.78;;;14.81;53.64
20009;BME280;10165;42.662;23.260;2022-11-02T06:42:38;94812.34;;;14.99;52.76
20009;BME280;10165;42.662;23.260;2022-11-02T06:45:29;94818.16;;;15.01;52.80
20009;BME280;10165;42.662;23.260;2022-11-02T06:47:56;94821.06;;;15.11;52.82
20009;BME280;10165;42.662;23.260;2022-11-02T06:50:26;94821.97;;;15.19;52.77
20009;BME280;10165;42.662;23.260;2022-11-02T06:53:10;94820.28;;;15.11;53.64
20009;BME280;10165;42.662;23.260;2022-11-02T06:55:37;94818.16;;;15.20;53.36
20009;BME280;10165;42.662;23.260;2022-11-02T06:58:17;94811.66;;;15.21;53.41
20009;BME280;10165;42.662;23.260;2022-11-02T07:01:04;94814.97;;;15.14;53.44
20009;BME280;10165;42.662;23.260;2022-11-02T07:03:40;94805.22;;;15.48;52.86
20009;BME280;10165;42.662;23.260;2022-11-02T07:06:07;94807.75;;;15.60;52.48
20009;BME280;10165;42.662;23.260;2022-11-02T07:08:40;94807.59;;;15.72;51.92
20009;BME280;10165;42.662;23.260;2022-11-02T07:11:12;94806.63;;;15.61;52.17
20009;BME280;10165;42.662;23.260;2022-11-02T07:14:11;94811.66;;;15.63;52.15
20009;BME280;10165;42.662;23.260;2022-11-02T07:16:50;94808.09;;;15.78;51.84
20009;BME280;10165;42.662;23.260;2022-11-02T07:19:17;94806.50;;;16.00;51.11
20009;BME280;10165;42.662;23.260;2022-11-02T07:21:47;94804.25;;;16.02;50.60
20009;BME280;10165;42.662;23.260;2022-11-02T07:24:21;94808.38;;;16.22;49.90
20009;BME280;10165;42.662;23.260;2022-11-02T07:26:59;94811.19;;;16.29;49.80
20009;BME280;10165;42.662;23.260;2022-11-02T07:29:35;94808.91;;;16.05;50.37
20009;BME280;10165;42.662;23.260;2022-11-02T07:32:09;94810.53;;;16.09;50.79
20009;BME280;10165;42.662;23.260;2022-11-02T07:34:48;94804.56;;;16.23;50.08
20009;BME280;10165;42.662;23.260;2022-11-02T07:37:20;94807.72;;;16.29;50.14
20009;BME280;10165;42.662;23.260;2022-11-02T07:39:53;94806.22;;;16.31;49.85
20009;BME280;10165;42.662;23.260;2022-11-02T07:42:19;94804.16;;;16.21;50.04
20009;BME280;10165;42.662;23.260;2022-11-02T07:44:52;94797.56;;;16.18;50.09
20009;BME280;10165;42.662;23.260;2022-11-02T07:47:22;94800.47;;;16.33;50.13
20009;BME280;10165;42.662;23.260;2022-11-02T07:50:01;94797.94;;;16.43;49.71
20009;BME280;10165;42.662;23.260;2022-11-02T07:52:30;94800.94;;;16.38;49.79
20009;BME280;10165;42.662;23.260;2022-11-02T07:55:01;94807.06;;;16.35;49.43
20009;BME280;10165;42.662;23.260;2022-11-02T07:57:31;94798.47;;;16.56;49.16
20009;BME280;10165;42.662;23.260;2022-11-02T08:00:16;94788.69;;;16.44;49.04
20009;BME280;10165;42.662;23.260;2022-11-02T08:02:44;94782.88;;;16.68;48.69
20009;BME280;10165;42.662;23.260;2022-11-02T08:05:17;94791.47;;;16.78;48.35
20009;BME280;10165;42.662;23.260;2022-11-02T08:07:45;94789.88;;;16.73;48.58
20009;BME280;10165;42.662;23.260;2022-11-02T08:10:23;94784.59;;;16.84;48.22
20009;BME280;10165;42.662;23.260;2022-11-02T08:13:04;94777.41;;;16.95;48.41
20009;BME280;10165;42.662;23.260;2022-11-02T08:15:35;94775.22;;;17.04;48.41
20009;BME280;10165;42.662;23.260;2022-11-02T08:18:24;94771.63;;;16.93;48.60
20009;BME280;10165;42.662;23.260;2022-11-02T08:20:54;94768.50;;;16.91;48.57
20009;BME280;10165;42.662;23.260;2022-11-02T08:23:28;94768.50;;;16.91;48.52
20009;BME280;10165;42.662;23.260;2022-11-02T08:25:58;94761.81;;;17.14;48.11
20009;BME280;10165;42.662;23.260;2022-11-02T08:28:29;94758.31;;;17.47;46.96
20009;BME280;10165;42.662;23.260;2022-11-02T08:31:15;94755.00;;;17.24;47.35
20009;BME280;10165;42.662;23.260;2022-11-02T08:33:43;94761.53;;;17.23;48.04
20009;BME280;10165;42.662;23.260;2022-11-02T08:36:37;94755.19;;;17.45;47.52
20009;BME280;10165;42.662;23.260;2022-11-02T08:39:09;94761.53;;;17.60;46.81
20009;BME280;10165;42.662;23.260;2022-11-02T08:42:03;94753.16;;;17.72;46.51
20009;BME280;10165;42.662;23.260;2022-11-02T08:44:35;94758.53;;;17.68;46.56
20009;BME280;10165;42.662;23.260;2022-11-02T08:47:08;94749.31;;;17.73;46.57
20009;BME280;10165;42.662;23.260;2022-11-02T08:49:48;94742.53;;;17.93;45.72
20009;BME280;10165;42.662;23.260;2022-11-02T08:52:18;94751.88;;;18.06;45.77
20009;BME280;10165;42.662;23.260;2022-11-02T08:54:52;94751.84;;;18.03;46.00
20009;BME280;10165;42.662;23.260;2022-11-02T08:57:25;94747.44;;;18.32;44.96
20009;BME280;10165;42.662;23.260;2022-11-02T08:59:56;94743.53;;;18.33;44.85
20009;BME280;10165;42.662;23.260;2022-11-02T09:02:32;94744.78;;;18.42;44.58
20009;BME280;10165;42.662;23.260;2022-11-02T09:05:11;94735.50;;;18.43;44.62
20009;BME280;10165;42.662;23.260;2022-11-02T09:07:38;94741.03;;;18.57;44.37
20009;BME280;10165;42.662;23.260;2022-11-02T09:10:08;94744.56;;;18.76;44.10
20009;BME280;10165;42.662;23.260;2022-11-02T09:12:36;94735.31;;;18.77;44.23
20009;BME280;10165;42.662;23.260;2022-11-02T09:15:08;94738.06;;;18.87;44.07
20009;BME280;10165;42.662;23.260;2022-11-02T09:17:48;94733.41;;;18.84;43.83
20009;BME280;10165;42.662;23.260;2022-11-02T09:20:20;94731.50;;;18.92;43.85
20009;BME280;10165;42.662;23.260;2022-11-02T09:22:57;94729.94;;;18.91;44.11
20009;BME280;10165;42.662;23.260;2022-11-02T09:25:25;94714.50;;;19.02;43.98
20009;BME280;10165;42.662;23.260;2022-11-02T09:28:01;94716.88;;;19.25;43.14
20009;BME280;10165;42.662;23.260;2022-11-02T09:30:27;94721.94;;;19.26;43.07
20009;BME280;10165;42.662;23.260;2022-11-02T09:33:08;94720.41;;;19.39;42.73
20009;BME280;10165;42.662;23.260;2022-11-02T09:35:49;94720.03;;;19.48;42.68
20009;BME280;10165;42.662;23.260;2022-11-02T09:38:18;94717.72;;;19.43;42.94
20009;BME280;10165;42.662;23.260;2022-11-02T09:41:01;94716.19;;;19.52;42.68
20009;BME280;10165;42.662;23.260;2022-11-02T09:46:30;94694.13;;;19.79;42.45
20009;BME280;10165;42.662;23.260;2022-11-02T09:49:20;94700.69;;;19.92;41.50
20009;BME280;10165;42.662;23.260;2022-11-02T09:52:00;94696.81;;;20.07;41.64
20009;BME280;10165;42.662;23.260;2022-11-02T09:54:29;94690.59;;;20.35;41.25
20009;BME280;10165;42.662;23.260;2022-11-02T09:57:20;94690.97;;;20.26;41.55
20009;BME280;10165;42.662;23.260;2022-11-02T09:59:50;94681.25;;;20.25;41.91
20009;BME280;10165;42.662;23.260;2022-11-02T10:02:40;94679.72;;;20.38;39.06
20009;BME280;10165;42.662;23.260;2022-11-02T10:05:29;94668.88;;;20.17;41.42
20009;BME280;10165;42.662;23.260;2022-11-02T10:08:38;94665.34;;;20.45;41.15
20009;BME280;10165;42.662;23.260;2022-11-02T10:14:16;94661.53;;;21.19;39.36
20009;BME280;10165;42.662;23.260;2022-11-02T10:16:56;94657.59;;;21.27;39.16
20009;BME280;10165;42.662;23.260;2022-11-02T10:19:39;94650.44;;;21.47;39.01
20009;BME280;10165;42.662;23.260;2022-11-02T10:22:12;94657.06;;;21.46;38.84
20009;BME280;10165;42.662;23.260;2022-11-02T10:24:40;94639.44;;;21.65;38.40
20009;BME280;10165;42.662;23.260;2022-11-02T10:27:26;94638.72;;;21.57;38.69
20009;BME280;10165;42.662;23.260;2022-11-02T10:30:17;94630.31;;;21.41;39.01
20009;BME280;10165;42.662;23.260;2022-11-02T10:32:47;94638.00;;;21.50;39.49
20009;BME280;10165;42.662;23.260;2022-11-02T10:44:39;94626.06;;;22.56;32.46
20009;BME280;10165;42.662;23.260;2022-11-02T10:47:26;94620.97;;;22.27;32.17
20009;BME280;10165;42.662;23.260;2022-11-02T10:50:28;94615.81;;;22.67;34.48
20009;BME280;10165;42.662;23.260;2022-11-02T10:53:11;94611.97;;;22.64;33.91
20009;BME280;10165;42.662;23.260;2022-11-02T10:56:21;94616.09;;;22.79;34.09
20009;BME280;10165;42.662;23.260;2022-11-02T11:01:33;94608.47;;;22.94;32.68
20009;BME280;10165;42.662;23.260;2022-11-02T11:04:19;94599.88;;;22.69;32.65
20009;BME280;10165;42.662;23.260;2022-11-02T11:07:04;94605.66;;;22.40;32.30
20009;BME280;10165;42.662;23.260;2022-11-02T11:09:50;94602.31;;;22.90;31.40
20009;BME280;10165;42.662;23.260;2022-11-02T11:12:37;94599.31;;;22.81;31.70
20009;BME280;10165;42.662;23.260;2022-11-02T11:15:21;94593.81;;;22.84;31.86
20009;BME280;10165;42.662;23.260;2022-11-02T11:18:10;94597.97;;;23.19;31.45
20009;BME280;10165;42.662;23.260;2022-11-02T11:21:07;94594.09;;;22.63;30.51
20009;BME280;10165;42.662;23.260;2022-11-02T11:23:34;94591.13;;;22.81;30.32
20009;BME280;10165;42.662;23.260;2022-11-02T11:26:04;94590.22;;;23.18;29.14
20009;BME280;10165;42.662;23.260;2022-11-02T11:28:51;94584.78;;;23.18;29.29
20009;BME280;10165;42.662;23.260;2022-11-02T11:31:23;94575.47;;;23.39;28.81
20009;BME280;10165;42.662;23.260;2022-11-02T11:34:03;94572.75;;;23.39;28.37
20009;BME280;10165;42.662;23.260;2022-11-02T11:36:32;94574.00;;;23.61;27.77
20009;BME280;10165;42.662;23.260;2022-11-02T11:39:24;94570.00;;;23.15;28.19
20009;BME280;10165;42.662;23.260;2022-11-02T11:41:51;94557.25;;;23.59;28.17
20009;BME280;10165;42.662;23.260;2022-11-02T11:44:23;94565.75;;;23.14;27.71
20009;BME280;10165;42.662;23.260;2022-11-02T11:47:02;94564.00;;;23.51;28.23
20009;BME280;10165;42.662;23.260;2022-11-02T11:49:47;94560.88;;;23.52;27.31
20009;BME280;10165;42.662;23.260;2022-11-02T11:52:34;94556.31;;;23.46;27.12
20009;BME280;10165;42.662;23.260;2022-11-02T11:55:28;94546.22;;;23.43;27.63
20009;BME280;10165;42.662;23.260;2022-11-02T11:58:21;94550.44;;;23.70;27.29
20009;BME280;10165;42.662;23.260;2022-11-02T12:03:57;94543.16;;;23.64;27.52
20009;BME280;10165;42.662;23.260;2022-11-02T12:07:00;94542.06;;;23.58;27.40
20009;BME280;10165;42.662;23.260;2022-11-02T12:10:06;94527.97;;;23.63;27.76
20009;BME280;10165;42.662;23.260;2022-11-02T12:28:26;94511.97;;;23.85;27.98
20009;BME280;10165;42.662;23.260;2022-11-02T12:31:22;94513.09;;;23.87;27.76
20009;BME280;10165;42.662;23.260;2022-11-02T12:37:13;94499.56;;;24.00;27.18
20009;BME280;10165;42.662;23.260;2022-11-02T12:46:00;94505.31;;;23.66;27.91
20009;BME280;10165;42.662;23.260;2022-11-02T12:54:27;94493.09;;;23.94;27.57
20009;BME280;10165;42.662;23.260;2022-11-02T12:56:55;94483.97;;;23.80;27.59
20009;BME280;10165;42.662;23.260;2022-11-02T12:59:29;94486.81;;;23.54;27.99
20009;BME280;10165;42.662;23.260;2022-11-02T13:02:20;94490.31;;;23.54;27.73
20009;BME280;10165;42.662;23.260;2022-11-02T13:07:39;94491.94;;;23.52;27.47
20009;BME280;10165;42.662;23.260;2022-11-02T13:10:23;94496.41;;;23.62;27.46
20009;BME280;10165;42.662;23.260;2022-11-02T13:13:03;94487.59;;;23.31;27.73
20009;BME280;10165;42.662;23.260;2022-11-02T13:15:37;94487.66;;;23.51;27.86
20009;BME280;10165;42.662;23.260;2022-11-02T13:22:17;94486.34;;;23.59;27.75
20009;BME280;10165;42.662;23.260;2022-11-02T13:25:25;94487.31;;;23.49;27.96
20009;BME280;10165;42.662;23.260;2022-11-02T13:28:13;94487.66;;;23.51;28.11
20009;BME280;10165;42.662;23.260;2022-11-02T13:30:55;94487.94;;;23.33;27.98
20009;BME280;10165;42.662;23.260;2022-11-02T13:33:46;94489.78;;;23.40;28.17
20009;BME280;10165;42.662;23.260;2022-11-02T13:36:22;94491.53;;;23.53;28.06
20009;BME280;10165;42.662;23.260;2022-11-02T13:42:19;94496.34;;;23.46;27.98
20009;BME280;10165;42.662;23.260;2022-11-02T13:50:26;94493.25;;;23.44;27.73
20009;BME280;10165;42.662;23.260;2022-11-02T13:53:16;94485.03;;;23.67;27.85
20009;BME280;10165;42.662;23.260;2022-11-02T13:56:06;94485.44;;;23.46;28.26
20009;BME280;10165;42.662;23.260;2022-11-02T13:58:45;94484.97;;;23.24;28.39
20009;BME280;10165;42.662;23.260;2022-11-02T14:01:31;94490.25;;;23.34;27.98
20009;BME280;10165;42.662;23.260;2022-11-02T14:04:06;94484.91;;;23.04;28.62
20009;BME280;10165;42.662;23.260;2022-11-02T14:07:03;94496.13;;;23.33;28.21
20009;BME280;10165;42.662;23.260;2022-11-02T14:25:48;94493.84;;;22.81;28.83
20009;BME280;10165;42.662;23.260;2022-11-02T14:28:30;94489.91;;;23.09;28.59
20009;BME280;10165;42.662;23.260;2022-11-02T14:43:01;94503.66;;;23.02;29.33
20009;BME280;10165;42.662;23.260;2022-11-02T14:48:54;94510.00;;;22.96;29.67
20009;BME280;10165;42.662;23.260;2022-11-02T14:51:32;94511.88;;;22.99;29.38
20009;BME280;10165;42.662;23.260;2022-11-02T14:54:17;94502.34;;;22.87;29.82
20009;BME280;10165;42.662;23.260;2022-11-02T14:57:21;94503.31;;;22.73;30.06
20009;BME280;10165;42.662;23.260;2022-11-02T14:59:56;94504.41;;;22.79;30.40
20009;BME280;10165;42.662;23.260;2022-11-02T15:02:37;94507.34;;;22.62;30.57
20009;BME280;10165;42.662;23.260;2022-11-02T15:05:32;94507.94;;;22.46;31.08
20009;BME280;10165;42.662;23.260;2022-11-02T15:08:22;94509.59;;;22.40;30.95
20009;BME280;10165;42.662;23.260;2022-11-02T15:14:51;94518.44;;;22.17;31.36
20009;BME280;10165;42.662;23.260;2022-11-02T15:20:29;94524.78;;;21.32;32.95
20009;BME280;10165;42.662;23.260;2022-11-02T15:25:57;94520.34;;;21.86;32.26
20009;BME280;10165;42.662;23.260;2022-11-02T15:28:33;94518.88;;;21.78;32.28
20009;BME280;10165;42.662;23.260;2022-11-02T15:31:06;94526.69;;;21.76;32.24
20009;BME280;10165;42.662;23.260;2022-11-02T15:33:52;94525.84;;;21.79;32.23
20009;BME280;10165;42.662;23.260;2022-11-02T15:36:40;94518.81;;;21.82;32.16
20009;BME280;10165;42.662;23.260;2022-11-02T15:39:13;94519.81;;;22.02;31.90
20009;BME280;10165;42.662;23.260;2022-11-02T15:42:00;94528.06;;;21.95;31.82
20009;BME280;10165;42.662;23.260;2022-11-02T15:44:53;94526.72;;;21.73;31.94
20009;BME280;10165;42.662;23.260;2022-11-02T15:53:54;94534.88;;;21.73;31.77
20009;BME280;10165;42.662;23.260;2022-11-02T15:57:01;94534.22;;;21.62;32.08
20009;BME280;10165;42.662;23.260;2022-11-02T15:59:51;94543.66;;;21.46;32.20
20009;BME280;10165;42.662;23.260;2022-11-02T16:02:50;94540.47;;;21.11;32.77